CFG6DP EDDF-LGKR
Flight info
| Callsign | CFG6DP |
|---|---|
| Flight time | 1h 58m |
| Altitude | 37000 |
| Route | CINDY8S/18 CINDY Z74 LAMPU DCT NOMBO Y161 MAH DCT VAVOR DCT RADIZ DCT NERRA DCT KOFER DCT RODON DCT LIMJA N732 PITAS |
| Aircraft | B763/H-SDE3FGHIM3RWXY/LB1 |
Departure
| Time | 2026-05-05 11:52 |
|---|---|
| Airport | Frankfurt Main Airport (EDDF) |
Arrival
| Time | 2026-05-05 13:50 |
|---|---|
| Airport | Corfu Ioannis Kapodistrias International Airport (LGKR) |
| Time | Latitude | Longitude | Altitude | Speed | Heading |
|---|---|---|---|---|---|
| 2026-05-05 10:52 | 50.03648 | 8.53858 | 376 ft | 0 kts | 160° |
| 2026-05-05 11:45 | 50.03644 | 8.53860 | 377 ft | 2 kts | 160° |
| 2026-05-05 11:45 | 50.03603 | 8.53883 | 377 ft | 8 kts | 160° |
| 2026-05-05 11:45 | 50.03554 | 8.53866 | 376 ft | 7 kts | 231° |
| 2026-05-05 11:46 | 50.03531 | 8.53784 | 376 ft | 10 kts | 250° |
| 2026-05-05 11:46 | 50.03501 | 8.53657 | 376 ft | 14 kts | 250° |
| 2026-05-05 11:46 | 50.03466 | 8.53510 | 376 ft | 14 kts | 250° |
| 2026-05-05 11:46 | 50.03431 | 8.53363 | 376 ft | 14 kts | 249° |
| 2026-05-05 11:47 | 50.03396 | 8.53221 | 376 ft | 13 kts | 249° |
| 2026-05-05 11:47 | 50.03363 | 8.53083 | 376 ft | 13 kts | 250° |
| 2026-05-05 11:47 | 50.03330 | 8.52945 | 376 ft | 13 kts | 250° |
| 2026-05-05 11:47 | 50.03298 | 8.52811 | 376 ft | 13 kts | 250° |
| 2026-05-05 11:48 | 50.03238 | 8.52599 | 376 ft | 6 kts | 201° |
| 2026-05-05 11:48 | 50.03203 | 8.52591 | 376 ft | 0 kts | 181° |
| 2026-05-05 11:51 | 50.03189 | 8.52591 | 376 ft | 5 kts | 181° |
| 2026-05-05 11:51 | 50.02990 | 8.52591 | 376 ft | 58 kts | 180° |
| 2026-05-05 11:51 | 50.02369 | 8.52598 | 376 ft | 120 kts | 180° |
| 2026-05-05 11:51 | 50.01337 | 8.52610 | 423 ft | 173 kts | 181° |
| 2026-05-05 11:52 | 50.00059 | 8.52623 | 1001 ft | 189 kts | 181° |
| 2026-05-05 11:52 | 49.98764 | 8.52636 | 1600 ft | 192 kts | 182° |
| 2026-05-05 11:52 | 49.97348 | 8.52811 | 1773 ft | 216 kts | 164° |
| 2026-05-05 11:52 | 49.96053 | 8.54151 | 2063 ft | 241 kts | 128° |
| 2026-05-05 11:53 | 49.95238 | 8.56419 | 2908 ft | 240 kts | 118° |
| 2026-05-05 11:53 | 49.94452 | 8.58711 | 3604 ft | 246 kts | 115° |
| 2026-05-05 11:53 | 49.94050 | 8.61418 | 4003 ft | 267 kts | 93° |
| 2026-05-05 11:53 | 49.93955 | 8.64285 | 4919 ft | 267 kts | 95° |
| 2026-05-05 11:54 | 49.93794 | 8.67128 | 5865 ft | 267 kts | 103° |
| 2026-05-05 11:54 | 49.93035 | 8.69803 | 6511 ft | 277 kts | 131° |
| 2026-05-05 11:54 | 49.91601 | 8.71718 | 7485 ft | 276 kts | 144° |
| 2026-05-05 11:54 | 49.90070 | 8.73479 | 8384 ft | 279 kts | 143° |
| 2026-05-05 11:55 | 49.88611 | 8.75427 | 9256 ft | 282 kts | 129° |
| 2026-05-05 11:55 | 49.87568 | 8.78043 | 9904 ft | 291 kts | 120° |
| 2026-05-05 11:55 | 49.86543 | 8.80828 | 9818 ft | 297 kts | 121° |
| 2026-05-05 11:55 | 49.85553 | 8.83515 | 9822 ft | 282 kts | 120° |
| 2026-05-05 11:56 | 49.84593 | 8.86146 | 9819 ft | 276 kts | 121° |
| 2026-05-05 11:56 | 49.83655 | 8.88718 | 9832 ft | 279 kts | 120° |
| 2026-05-05 11:56 | 49.82692 | 8.91363 | 9842 ft | 284 kts | 120° |
| 2026-05-05 11:56 | 49.81723 | 8.94030 | 9824 ft | 283 kts | 120° |
| 2026-05-05 11:57 | 49.80762 | 8.96668 | 9832 ft | 281 kts | 120° |
| 2026-05-05 11:57 | 49.79791 | 8.99332 | 9831 ft | 282 kts | 120° |
| 2026-05-05 11:57 | 49.78829 | 9.01971 | 9827 ft | 283 kts | 120° |
| 2026-05-05 11:57 | 49.77865 | 9.04613 | 9828 ft | 282 kts | 120° |
| 2026-05-05 11:58 | 49.76895 | 9.07268 | 9824 ft | 281 kts | 120° |
| 2026-05-05 11:58 | 49.76109 | 9.10039 | 9828 ft | 281 kts | 106° |
| 2026-05-05 11:58 | 49.75632 | 9.12987 | 9828 ft | 283 kts | 105° |
| 2026-05-05 11:58 | 49.75148 | 9.15916 | 9821 ft | 282 kts | 105° |
| 2026-05-05 11:59 | 49.74479 | 9.18725 | 9823 ft | 280 kts | 124° |
| 2026-05-05 11:59 | 49.73257 | 9.21093 | 9853 ft | 281 kts | 131° |
| 2026-05-05 11:59 | 49.71995 | 9.23401 | 9823 ft | 282 kts | 131° |
| 2026-05-05 11:59 | 49.70730 | 9.25688 | 9816 ft | 279 kts | 131° |
| 2026-05-05 12:00 | 49.69467 | 9.27947 | 9822 ft | 279 kts | 131° |
| 2026-05-05 12:00 | 49.68183 | 9.30226 | 9829 ft | 281 kts | 131° |
| 2026-05-05 12:00 | 49.66904 | 9.32492 | 9825 ft | 282 kts | 131° |
| 2026-05-05 12:00 | 49.65624 | 9.34754 | 9827 ft | 281 kts | 131° |
| 2026-05-05 12:01 | 49.64333 | 9.37031 | 9822 ft | 280 kts | 131° |
| 2026-05-05 12:01 | 49.63039 | 9.39312 | 9818 ft | 280 kts | 131° |
| 2026-05-05 12:01 | 49.61667 | 9.41433 | 9849 ft | 284 kts | 145° |
| 2026-05-05 12:01 | 49.59951 | 9.43058 | 10245 ft | 301 kts | 148° |
| 2026-05-05 12:02 | 49.58081 | 9.44822 | 10441 ft | 331 kts | 149° |
| 2026-05-05 12:02 | 49.56015 | 9.46738 | 10661 ft | 359 kts | 149° |
| 2026-05-05 12:02 | 49.53833 | 9.48747 | 11460 ft | 369 kts | 149° |
| 2026-05-05 12:02 | 49.51645 | 9.50754 | 12369 ft | 374 kts | 149° |
| 2026-05-05 12:03 | 49.49373 | 9.52831 | 13243 ft | 379 kts | 150° |
| 2026-05-05 12:03 | 49.47092 | 9.54912 | 14098 ft | 384 kts | 150° |
| 2026-05-05 12:03 | 49.44809 | 9.56991 | 14918 ft | 388 kts | 150° |
| 2026-05-05 12:03 | 49.42468 | 9.59122 | 15733 ft | 392 kts | 150° |
| 2026-05-05 12:04 | 49.40109 | 9.61264 | 16497 ft | 397 kts | 150° |
| 2026-05-05 12:04 | 49.37729 | 9.63424 | 17303 ft | 401 kts | 150° |
| 2026-05-05 12:04 | 49.35323 | 9.65627 | 18034 ft | 407 kts | 149° |
| 2026-05-05 12:04 | 49.33073 | 9.68294 | 18836 ft | 412 kts | 139° |
| 2026-05-05 12:05 | 49.31041 | 9.71402 | 19527 ft | 418 kts | 137° |
| 2026-05-05 12:05 | 49.28955 | 9.74542 | 20303 ft | 422 kts | 137° |
| 2026-05-05 12:05 | 49.26857 | 9.77737 | 20997 ft | 426 kts | 137° |
| 2026-05-05 12:05 | 49.24755 | 9.80931 | 21651 ft | 431 kts | 137° |
| 2026-05-05 12:06 | 49.22620 | 9.84178 | 22350 ft | 433 kts | 137° |
| 2026-05-05 12:06 | 49.20477 | 9.87433 | 22963 ft | 437 kts | 137° |
| 2026-05-05 12:06 | 49.18303 | 9.90734 | 23543 ft | 442 kts | 137° |
| 2026-05-05 12:06 | 49.16121 | 9.94041 | 24126 ft | 445 kts | 137° |
| 2026-05-05 12:07 | 49.13924 | 9.97370 | 24689 ft | 449 kts | 137° |
| 2026-05-05 12:07 | 49.11683 | 10.00757 | 25243 ft | 451 kts | 137° |
| 2026-05-05 12:07 | 49.09470 | 10.04102 | 25730 ft | 454 kts | 137° |
| 2026-05-05 12:07 | 49.07201 | 10.07523 | 26249 ft | 457 kts | 137° |
| 2026-05-05 12:08 | 49.04917 | 10.10856 | 26677 ft | 460 kts | 139° |
| 2026-05-05 12:08 | 49.02549 | 10.14195 | 27199 ft | 461 kts | 139° |
| 2026-05-05 12:08 | 49.00181 | 10.17549 | 27554 ft | 466 kts | 139° |
| 2026-05-05 12:08 | 48.97817 | 10.20884 | 28121 ft | 465 kts | 139° |
| 2026-05-05 12:09 | 48.95407 | 10.24282 | 28405 ft | 470 kts | 140° |
| 2026-05-05 12:09 | 48.93041 | 10.27623 | 28845 ft | 470 kts | 139° |
| 2026-05-05 12:09 | 48.90650 | 10.31000 | 29320 ft | 470 kts | 139° |
| 2026-05-05 12:09 | 48.88229 | 10.34411 | 29809 ft | 468 kts | 139° |
| 2026-05-05 12:10 | 48.85862 | 10.37747 | 30221 ft | 468 kts | 140° |
| 2026-05-05 12:10 | 48.83449 | 10.41135 | 30600 ft | 469 kts | 140° |
| 2026-05-05 12:10 | 48.81176 | 10.44610 | 30988 ft | 470 kts | 135° |
| 2026-05-05 12:10 | 48.78945 | 10.48231 | 31352 ft | 469 kts | 136° |
| 2026-05-05 12:11 | 48.76711 | 10.51822 | 31821 ft | 467 kts | 136° |
| 2026-05-05 12:11 | 48.74479 | 10.55396 | 32217 ft | 466 kts | 136° |
| 2026-05-05 12:11 | 48.72217 | 10.59011 | 32473 ft | 468 kts | 136° |
| 2026-05-05 12:11 | 48.69985 | 10.62571 | 32904 ft | 466 kts | 137° |
| 2026-05-05 12:12 | 48.67787 | 10.66072 | 33277 ft | 465 kts | 137° |
| 2026-05-05 12:12 | 48.65534 | 10.69654 | 33559 ft | 466 kts | 138° |
| 2026-05-05 12:12 | 48.63306 | 10.73192 | 33934 ft | 465 kts | 138° |
| 2026-05-05 12:12 | 48.61087 | 10.76710 | 34203 ft | 465 kts | 138° |
| 2026-05-05 12:13 | 48.58858 | 10.80242 | 34512 ft | 465 kts | 138° |
| 2026-05-05 12:13 | 48.56628 | 10.83811 | 34797 ft | 465 kts | 138° |
| 2026-05-05 12:13 | 48.54395 | 10.87384 | 35089 ft | 464 kts | 138° |
| 2026-05-05 12:13 | 48.52192 | 10.90903 | 35247 ft | 466 kts | 137° |
| 2026-05-05 12:14 | 48.49955 | 10.94473 | 35470 ft | 465 kts | 138° |
| 2026-05-05 12:14 | 48.47736 | 10.97967 | 35680 ft | 465 kts | 138° |
| 2026-05-05 12:14 | 48.45483 | 11.01481 | 35861 ft | 465 kts | 138° |
| 2026-05-05 12:14 | 48.43212 | 11.05022 | 36019 ft | 467 kts | 138° |
| 2026-05-05 12:15 | 48.40968 | 11.08514 | 36170 ft | 467 kts | 138° |
| 2026-05-05 12:15 | 48.38715 | 11.12020 | 36389 ft | 467 kts | 138° |
| 2026-05-05 12:15 | 48.36441 | 11.15550 | 36603 ft | 466 kts | 138° |
| 2026-05-05 12:15 | 48.34198 | 11.19029 | 36769 ft | 466 kts | 138° |
| 2026-05-05 12:16 | 48.29663 | 11.26047 | 36823 ft | 467 kts | 137° |
| 2026-05-05 12:16 | 48.25529 | 11.33527 | 36836 ft | 472 kts | 125° |
| 2026-05-05 12:17 | 48.22163 | 11.42091 | 36822 ft | 475 kts | 124° |
| 2026-05-05 12:17 | 48.18833 | 11.50645 | 36812 ft | 474 kts | 123° |
| 2026-05-05 12:18 | 48.15525 | 11.59155 | 36810 ft | 476 kts | 123° |
| 2026-05-05 12:18 | 48.12191 | 11.67714 | 36807 ft | 477 kts | 124° |
| 2026-05-05 12:19 | 48.08848 | 11.76273 | 36802 ft | 476 kts | 124° |
| 2026-05-05 12:19 | 48.05500 | 11.84817 | 36797 ft | 477 kts | 124° |
| 2026-05-05 12:20 | 48.02150 | 11.93341 | 36801 ft | 477 kts | 124° |
| 2026-05-05 12:20 | 47.98789 | 12.01863 | 36803 ft | 477 kts | 124° |
| 2026-05-05 12:21 | 47.95414 | 12.10385 | 36828 ft | 478 kts | 125° |
| 2026-05-05 12:21 | 47.91188 | 12.17921 | 36838 ft | 469 kts | 142° |
| 2026-05-05 12:22 | 47.86265 | 12.24311 | 36861 ft | 471 kts | 143° |
| 2026-05-05 12:22 | 47.81274 | 12.30628 | 36858 ft | 470 kts | 143° |
| 2026-05-05 12:23 | 47.76279 | 12.36884 | 36891 ft | 471 kts | 143° |
| 2026-05-05 12:23 | 47.71249 | 12.43150 | 36888 ft | 472 kts | 143° |
| 2026-05-05 12:24 | 47.66211 | 12.49408 | 36898 ft | 471 kts | 143° |
| 2026-05-05 12:24 | 47.61153 | 12.55602 | 36916 ft | 472 kts | 144° |
| 2026-05-05 12:25 | 47.56023 | 12.61640 | 36909 ft | 471 kts | 144° |
| 2026-05-05 12:25 | 47.50874 | 12.67694 | 36911 ft | 471 kts | 145° |
| 2026-05-05 12:26 | 47.45762 | 12.73691 | 36938 ft | 471 kts | 145° |
| 2026-05-05 12:26 | 47.40622 | 12.79704 | 36945 ft | 473 kts | 145° |
| 2026-05-05 12:27 | 47.35438 | 12.85755 | 36951 ft | 473 kts | 144° |
| 2026-05-05 12:27 | 47.30280 | 12.91761 | 36957 ft | 473 kts | 145° |
| 2026-05-05 12:28 | 47.25112 | 12.97761 | 36962 ft | 474 kts | 144° |
| 2026-05-05 12:28 | 47.19932 | 13.03760 | 36974 ft | 474 kts | 144° |
| 2026-05-05 12:29 | 47.14757 | 13.09739 | 36974 ft | 474 kts | 144° |
| 2026-05-05 12:29 | 47.09556 | 13.15731 | 36965 ft | 475 kts | 144° |
| 2026-05-05 12:30 | 47.04369 | 13.21692 | 36974 ft | 474 kts | 144° |
| 2026-05-05 12:30 | 46.99159 | 13.27667 | 36975 ft | 475 kts | 144° |
| 2026-05-05 12:31 | 46.93987 | 13.33581 | 36974 ft | 475 kts | 144° |
| 2026-05-05 12:31 | 46.88756 | 13.39547 | 36969 ft | 476 kts | 144° |
| 2026-05-05 12:32 | 46.83512 | 13.45513 | 36963 ft | 476 kts | 144° |
| 2026-05-05 12:32 | 46.78279 | 13.51451 | 36989 ft | 478 kts | 144° |
| 2026-05-05 12:33 | 46.73050 | 13.57370 | 36989 ft | 477 kts | 144° |
| 2026-05-05 12:33 | 46.67805 | 13.63294 | 36991 ft | 477 kts | 144° |
| 2026-05-05 12:34 | 46.62556 | 13.69205 | 36977 ft | 476 kts | 145° |
| 2026-05-05 12:34 | 46.57324 | 13.75083 | 36978 ft | 476 kts | 145° |
| 2026-05-05 12:35 | 46.52051 | 13.80991 | 36977 ft | 477 kts | 145° |
| 2026-05-05 12:35 | 46.46803 | 13.86857 | 36977 ft | 478 kts | 145° |
| 2026-05-05 12:36 | 46.41519 | 13.92749 | 36984 ft | 478 kts | 145° |
| 2026-05-05 12:36 | 46.36280 | 13.98576 | 36998 ft | 478 kts | 145° |
| 2026-05-05 12:37 | 46.30978 | 14.04458 | 36992 ft | 478 kts | 145° |
| 2026-05-05 12:37 | 46.25692 | 14.10309 | 36976 ft | 477 kts | 145° |
| 2026-05-05 12:38 | 46.20453 | 14.16093 | 36986 ft | 477 kts | 144° |
| 2026-05-05 12:38 | 46.15170 | 14.21910 | 37013 ft | 477 kts | 144° |
| 2026-05-05 12:39 | 46.09890 | 14.27711 | 37004 ft | 478 kts | 145° |
| 2026-05-05 12:39 | 46.04592 | 14.33515 | 37014 ft | 479 kts | 145° |
| 2026-05-05 12:40 | 45.99265 | 14.39339 | 36993 ft | 479 kts | 144° |
| 2026-05-05 12:40 | 45.93985 | 14.45096 | 36977 ft | 479 kts | 144° |
| 2026-05-05 12:41 | 45.88669 | 14.50878 | 36985 ft | 479 kts | 144° |
| 2026-05-05 12:41 | 45.83393 | 14.56602 | 37002 ft | 478 kts | 144° |
| 2026-05-05 12:42 | 45.78068 | 14.62367 | 36996 ft | 477 kts | 144° |
| 2026-05-05 12:42 | 45.72767 | 14.68090 | 36993 ft | 478 kts | 145° |
| 2026-05-05 12:43 | 45.67437 | 14.73830 | 36992 ft | 479 kts | 145° |
| 2026-05-05 12:43 | 45.62117 | 14.79548 | 36993 ft | 479 kts | 146° |
| 2026-05-05 12:44 | 45.56795 | 14.85252 | 37008 ft | 479 kts | 146° |
| 2026-05-05 12:44 | 45.51457 | 14.90959 | 36988 ft | 479 kts | 145° |
| 2026-05-05 12:45 | 45.46132 | 14.96639 | 37012 ft | 479 kts | 146° |
| 2026-05-05 12:45 | 45.40759 | 15.02358 | 36984 ft | 480 kts | 146° |
| 2026-05-05 12:46 | 45.35409 | 15.08036 | 37007 ft | 481 kts | 146° |
| 2026-05-05 12:46 | 45.30051 | 15.13709 | 36983 ft | 479 kts | 145° |
| 2026-05-05 12:47 | 45.24719 | 15.19343 | 37001 ft | 482 kts | 146° |
| 2026-05-05 12:47 | 45.19336 | 15.25016 | 37009 ft | 481 kts | 146° |
| 2026-05-05 12:48 | 45.13974 | 15.30654 | 37005 ft | 481 kts | 146° |
| 2026-05-05 12:48 | 45.08579 | 15.36311 | 36989 ft | 482 kts | 146° |
| 2026-05-05 12:49 | 45.03198 | 15.41941 | 37015 ft | 483 kts | 146° |
| 2026-05-05 12:49 | 44.97784 | 15.47592 | 37011 ft | 482 kts | 146° |
| 2026-05-05 12:50 | 44.92399 | 15.53200 | 37011 ft | 481 kts | 146° |
| 2026-05-05 12:50 | 44.87096 | 15.58709 | 37020 ft | 483 kts | 146° |
| 2026-05-05 12:51 | 44.81703 | 15.64297 | 37017 ft | 483 kts | 146° |
| 2026-05-05 12:51 | 44.76261 | 15.69924 | 37027 ft | 484 kts | 146° |
| 2026-05-05 12:52 | 44.70839 | 15.75516 | 37026 ft | 483 kts | 146° |
| 2026-05-05 12:52 | 44.65440 | 15.81073 | 37033 ft | 482 kts | 147° |
| 2026-05-05 12:53 | 44.60026 | 15.86629 | 37036 ft | 485 kts | 147° |
| 2026-05-05 12:53 | 44.54565 | 15.92223 | 37027 ft | 482 kts | 147° |
| 2026-05-05 12:54 | 44.46439 | 16.00521 | 37038 ft | 485 kts | 146° |
| 2026-05-05 12:55 | 44.40973 | 16.06084 | 37055 ft | 486 kts | 146° |
| 2026-05-05 12:55 | 44.35500 | 16.11645 | 37037 ft | 485 kts | 147° |
| 2026-05-05 12:56 | 44.30081 | 16.17135 | 37048 ft | 485 kts | 147° |
| 2026-05-05 12:56 | 44.24604 | 16.22672 | 37057 ft | 486 kts | 147° |
| 2026-05-05 12:57 | 44.19114 | 16.28210 | 37069 ft | 487 kts | 147° |
| 2026-05-05 12:57 | 44.13636 | 16.33721 | 37056 ft | 487 kts | 147° |
| 2026-05-05 12:58 | 44.08133 | 16.39245 | 37079 ft | 488 kts | 147° |
| 2026-05-05 12:58 | 44.02629 | 16.44758 | 37073 ft | 489 kts | 147° |
| 2026-05-05 12:59 | 43.97125 | 16.50257 | 37088 ft | 489 kts | 147° |
| 2026-05-05 12:59 | 43.91610 | 16.55755 | 37097 ft | 489 kts | 147° |
| 2026-05-05 13:00 | 43.83333 | 16.63981 | 37104 ft | 490 kts | 147° |
| 2026-05-05 13:01 | 43.72237 | 16.74966 | 37093 ft | 491 kts | 148° |
| 2026-05-05 13:01 | 43.66680 | 16.80446 | 37091 ft | 491 kts | 148° |
| 2026-05-05 13:02 | 43.61113 | 16.85926 | 37099 ft | 492 kts | 148° |
| 2026-05-05 13:02 | 43.55533 | 16.91406 | 37095 ft | 492 kts | 148° |
| 2026-05-05 13:03 | 43.49936 | 16.96888 | 37095 ft | 492 kts | 148° |
| 2026-05-05 13:03 | 43.44359 | 17.02338 | 37091 ft | 492 kts | 148° |
| 2026-05-05 13:04 | 43.38811 | 17.07748 | 37087 ft | 493 kts | 148° |
| 2026-05-05 13:04 | 43.33217 | 17.13190 | 37085 ft | 494 kts | 148° |
| 2026-05-05 13:05 | 43.27568 | 17.18674 | 37082 ft | 494 kts | 148° |
| 2026-05-05 13:05 | 43.21972 | 17.24092 | 37084 ft | 496 kts | 148° |
| 2026-05-05 13:06 | 43.16314 | 17.29558 | 37081 ft | 497 kts | 148° |
| 2026-05-05 13:06 | 43.10665 | 17.35004 | 37080 ft | 497 kts | 148° |
| 2026-05-05 13:07 | 43.05003 | 17.40449 | 37081 ft | 499 kts | 148° |
| 2026-05-05 13:07 | 42.99355 | 17.45868 | 37073 ft | 499 kts | 148° |
| 2026-05-05 13:08 | 42.93641 | 17.51338 | 37082 ft | 501 kts | 148° |
| 2026-05-05 13:08 | 42.88104 | 17.57028 | 37096 ft | 505 kts | 141° |
| 2026-05-05 13:09 | 42.82783 | 17.63331 | 37082 ft | 504 kts | 142° |
| 2026-05-05 13:09 | 42.77484 | 17.69520 | 37074 ft | 505 kts | 143° |
| 2026-05-05 13:10 | 42.72128 | 17.75748 | 37072 ft | 506 kts | 143° |
| 2026-05-05 13:10 | 42.66792 | 17.81934 | 37078 ft | 509 kts | 143° |
| 2026-05-05 13:11 | 42.61419 | 17.88150 | 37085 ft | 510 kts | 143° |
| 2026-05-05 13:11 | 42.56024 | 17.94376 | 37089 ft | 508 kts | 143° |
| 2026-05-05 13:12 | 42.50666 | 18.00543 | 37096 ft | 510 kts | 143° |
| 2026-05-05 13:12 | 42.45265 | 18.06745 | 37098 ft | 511 kts | 143° |
| 2026-05-05 13:13 | 42.39862 | 18.12937 | 37098 ft | 510 kts | 143° |
| 2026-05-05 13:13 | 42.34441 | 18.19132 | 37099 ft | 511 kts | 143° |
| 2026-05-05 13:14 | 42.28975 | 18.25365 | 37095 ft | 514 kts | 143° |
| 2026-05-05 13:14 | 42.23534 | 18.31557 | 37094 ft | 513 kts | 143° |
| 2026-05-05 13:15 | 42.18102 | 18.37724 | 37097 ft | 513 kts | 143° |
| 2026-05-05 13:15 | 42.12643 | 18.43905 | 37095 ft | 514 kts | 143° |
| 2026-05-05 13:16 | 42.07156 | 18.50103 | 37100 ft | 515 kts | 143° |
| 2026-05-05 13:16 | 42.01747 | 18.56204 | 37090 ft | 501 kts | 142° |
| 2026-05-05 13:17 | 41.96448 | 18.62163 | 37095 ft | 498 kts | 143° |
| 2026-05-05 13:17 | 41.91003 | 18.67969 | 37092 ft | 501 kts | 149° |
| 2026-05-05 13:18 | 41.85205 | 18.73391 | 37096 ft | 509 kts | 149° |
| 2026-05-05 13:18 | 41.79417 | 18.78805 | 37087 ft | 515 kts | 148° |
| 2026-05-05 13:19 | 41.73521 | 18.84310 | 37081 ft | 516 kts | 148° |
| 2026-05-05 13:19 | 41.67633 | 18.89792 | 37085 ft | 516 kts | 148° |
| 2026-05-05 13:20 | 41.61778 | 18.95233 | 37087 ft | 516 kts | 149° |
| 2026-05-05 13:20 | 41.55890 | 19.00690 | 37094 ft | 517 kts | 148° |
| 2026-05-05 13:21 | 41.49963 | 19.06171 | 37094 ft | 519 kts | 148° |
| 2026-05-05 13:21 | 41.43760 | 19.10834 | 37091 ft | 509 kts | 162° |
| 2026-05-05 13:22 | 41.40464 | 19.12528 | 36478 ft | 514 kts | 163° |
| 2026-05-05 13:22 | 41.37124 | 19.14207 | 35909 ft | 508 kts | 164° |
| 2026-05-05 13:22 | 41.33845 | 19.15836 | 35280 ft | 496 kts | 165° |
| 2026-05-05 13:22 | 41.30630 | 19.17416 | 34765 ft | 496 kts | 165° |
| 2026-05-05 13:23 | 41.27406 | 19.18990 | 34159 ft | 502 kts | 165° |
| 2026-05-05 13:23 | 41.24098 | 19.20600 | 33506 ft | 507 kts | 165° |
| 2026-05-05 13:23 | 41.20811 | 19.22200 | 32863 ft | 508 kts | 164° |
| 2026-05-05 13:23 | 41.17521 | 19.23800 | 32227 ft | 506 kts | 164° |
| 2026-05-05 13:24 | 41.14210 | 19.25408 | 31606 ft | 505 kts | 164° |
| 2026-05-05 13:24 | 41.10910 | 19.27007 | 31001 ft | 505 kts | 164° |
| 2026-05-05 13:24 | 41.07599 | 19.28611 | 30410 ft | 506 kts | 163° |
| 2026-05-05 13:24 | 41.04329 | 19.30193 | 29832 ft | 507 kts | 163° |
| 2026-05-05 13:25 | 41.00989 | 19.31807 | 29254 ft | 509 kts | 163° |
| 2026-05-05 13:25 | 40.97680 | 19.33405 | 28686 ft | 507 kts | 163° |
| 2026-05-05 13:25 | 40.94371 | 19.35001 | 28135 ft | 501 kts | 163° |
| 2026-05-05 13:25 | 40.91116 | 19.36570 | 27592 ft | 495 kts | 163° |
| 2026-05-05 13:26 | 40.87884 | 19.38127 | 27052 ft | 490 kts | 163° |
| 2026-05-05 13:26 | 40.84707 | 19.39654 | 26530 ft | 488 kts | 162° |
| 2026-05-05 13:26 | 40.81506 | 19.41191 | 26005 ft | 485 kts | 162° |
| 2026-05-05 13:26 | 40.78354 | 19.42702 | 25494 ft | 481 kts | 162° |
| 2026-05-05 13:27 | 40.75229 | 19.44201 | 24986 ft | 477 kts | 162° |
| 2026-05-05 13:27 | 40.72115 | 19.45692 | 24488 ft | 474 kts | 162° |
| 2026-05-05 13:27 | 40.69026 | 19.47169 | 23992 ft | 470 kts | 162° |
| 2026-05-05 13:27 | 40.65957 | 19.48636 | 23506 ft | 466 kts | 162° |
| 2026-05-05 13:28 | 40.62893 | 19.50099 | 23025 ft | 463 kts | 162° |
| 2026-05-05 13:28 | 40.59890 | 19.51531 | 22549 ft | 460 kts | 162° |
| 2026-05-05 13:28 | 40.56887 | 19.52962 | 22079 ft | 456 kts | 161° |
| 2026-05-05 13:28 | 40.53892 | 19.54386 | 21595 ft | 451 kts | 161° |
| 2026-05-05 13:29 | 40.50976 | 19.55770 | 21106 ft | 446 kts | 161° |
| 2026-05-05 13:29 | 40.48064 | 19.57152 | 20626 ft | 442 kts | 161° |
| 2026-05-05 13:29 | 40.45207 | 19.58506 | 20160 ft | 439 kts | 161° |
| 2026-05-05 13:29 | 40.42352 | 19.59858 | 19699 ft | 435 kts | 161° |
| 2026-05-05 13:30 | 40.39499 | 19.61209 | 19237 ft | 431 kts | 161° |
| 2026-05-05 13:30 | 40.36691 | 19.62536 | 18785 ft | 427 kts | 161° |
| 2026-05-05 13:30 | 40.33929 | 19.63840 | 18338 ft | 422 kts | 161° |
| 2026-05-05 13:30 | 40.31187 | 19.65134 | 17890 ft | 417 kts | 162° |
| 2026-05-05 13:31 | 40.28442 | 19.66429 | 17433 ft | 414 kts | 161° |
| 2026-05-05 13:31 | 40.25744 | 19.67700 | 16993 ft | 411 kts | 161° |
| 2026-05-05 13:31 | 40.23065 | 19.68961 | 16547 ft | 409 kts | 161° |
| 2026-05-05 13:31 | 40.20407 | 19.70211 | 16099 ft | 407 kts | 161° |
| 2026-05-05 13:32 | 40.17750 | 19.71458 | 15649 ft | 404 kts | 161° |
| 2026-05-05 13:32 | 40.15107 | 19.72699 | 15201 ft | 399 kts | 161° |
| 2026-05-05 13:32 | 40.12534 | 19.73906 | 14775 ft | 395 kts | 161° |
| 2026-05-05 13:32 | 40.09945 | 19.75119 | 14345 ft | 393 kts | 160° |
| 2026-05-05 13:33 | 40.07357 | 19.76332 | 13921 ft | 391 kts | 160° |
| 2026-05-05 13:33 | 40.04832 | 19.77514 | 13519 ft | 388 kts | 160° |
| 2026-05-05 13:33 | 40.02302 | 19.78698 | 13107 ft | 385 kts | 160° |
| 2026-05-05 13:33 | 39.99790 | 19.79872 | 12709 ft | 382 kts | 160° |
| 2026-05-05 13:34 | 39.97306 | 19.81031 | 12284 ft | 379 kts | 160° |
| 2026-05-05 13:34 | 39.94825 | 19.82188 | 11875 ft | 376 kts | 160° |
| 2026-05-05 13:34 | 39.92369 | 19.83334 | 11487 ft | 374 kts | 160° |
| 2026-05-05 13:34 | 39.89991 | 19.84429 | 11161 ft | 366 kts | 162° |
| 2026-05-05 13:35 | 39.87497 | 19.85019 | 11140 ft | 347 kts | 179° |
| 2026-05-05 13:35 | 39.85174 | 19.84640 | 11137 ft | 328 kts | 198° |
| 2026-05-05 13:35 | 39.83172 | 19.83414 | 11137 ft | 311 kts | 217° |
| 2026-05-05 13:35 | 39.81694 | 19.81491 | 11114 ft | 293 kts | 240° |
| 2026-05-05 13:36 | 39.81001 | 19.79077 | 10872 ft | 284 kts | 266° |
| 2026-05-05 13:36 | 39.81044 | 19.76548 | 10546 ft | 281 kts | 276° |
| 2026-05-05 13:36 | 39.81101 | 19.74009 | 10197 ft | 282 kts | 270° |
| 2026-05-05 13:36 | 39.80980 | 19.71505 | 9887 ft | 282 kts | 262° |
| 2026-05-05 13:37 | 39.80401 | 19.69078 | 9611 ft | 282 kts | 245° |
| 2026-05-05 13:37 | 39.79377 | 19.66901 | 9267 ft | 283 kts | 234° |
| 2026-05-05 13:37 | 39.78145 | 19.64926 | 8994 ft | 279 kts | 236° |
| 2026-05-05 13:37 | 39.77072 | 19.62884 | 9000 ft | 272 kts | 237° |
| 2026-05-05 13:38 | 39.76007 | 19.60838 | 9013 ft | 278 kts | 238° |
| 2026-05-05 13:38 | 39.74922 | 19.58741 | 9015 ft | 282 kts | 237° |
| 2026-05-05 13:38 | 39.73811 | 19.56653 | 9005 ft | 280 kts | 231° |
| 2026-05-05 13:38 | 39.72541 | 19.54725 | 9006 ft | 278 kts | 229° |
| 2026-05-05 13:39 | 39.71098 | 19.53063 | 8999 ft | 279 kts | 214° |
| 2026-05-05 13:39 | 39.69384 | 19.51855 | 8875 ft | 285 kts | 204° |
| 2026-05-05 13:39 | 39.67533 | 19.50985 | 8859 ft | 279 kts | 197° |
| 2026-05-05 13:39 | 39.65650 | 19.50377 | 8861 ft | 278 kts | 192° |
| 2026-05-05 13:40 | 39.63722 | 19.49982 | 8863 ft | 281 kts | 187° |
| 2026-05-05 13:40 | 39.61780 | 19.49778 | 8848 ft | 282 kts | 183° |
| 2026-05-05 13:40 | 39.59813 | 19.49926 | 8845 ft | 282 kts | 163° |
| 2026-05-05 13:40 | 39.58087 | 19.51107 | 8809 ft | 285 kts | 137° |
| 2026-05-05 13:41 | 39.56933 | 19.53155 | 8553 ft | 285 kts | 110° |
| 2026-05-05 13:41 | 39.56367 | 19.55608 | 8227 ft | 283 kts | 111° |
| 2026-05-05 13:41 | 39.55298 | 19.57724 | 7869 ft | 284 kts | 131° |
| 2026-05-05 13:41 | 39.54028 | 19.59668 | 7509 ft | 285 kts | 126° |
| 2026-05-05 13:42 | 39.52850 | 19.61748 | 7111 ft | 287 kts | 124° |
| 2026-05-05 13:42 | 39.51718 | 19.63872 | 6665 ft | 290 kts | 123° |
| 2026-05-05 13:42 | 39.50595 | 19.66053 | 6196 ft | 293 kts | 123° |
| 2026-05-05 13:42 | 39.49483 | 19.68255 | 5681 ft | 296 kts | 122° |
| 2026-05-05 13:43 | 39.48374 | 19.70472 | 5311 ft | 288 kts | 122° |
| 2026-05-05 13:43 | 39.47332 | 19.72562 | 5264 ft | 265 kts | 122° |
| 2026-05-05 13:43 | 39.46364 | 19.74510 | 5126 ft | 258 kts | 122° |
| 2026-05-05 13:43 | 39.45390 | 19.76472 | 4750 ft | 259 kts | 122° |
| 2026-05-05 13:44 | 39.44416 | 19.78436 | 4394 ft | 261 kts | 122° |
| 2026-05-05 13:44 | 39.43432 | 19.80419 | 4078 ft | 262 kts | 122° |
| 2026-05-05 13:44 | 39.42453 | 19.82390 | 3750 ft | 262 kts | 123° |
| 2026-05-05 13:44 | 39.41462 | 19.84387 | 3409 ft | 263 kts | 123° |
| 2026-05-05 13:45 | 39.40560 | 19.86429 | 2972 ft | 265 kts | 109° |
| 2026-05-05 13:45 | 39.40414 | 19.88730 | 2890 ft | 249 kts | 79° |
| 2026-05-05 13:45 | 39.40805 | 19.90828 | 2856 ft | 238 kts | 76° |
| 2026-05-05 13:45 | 39.41211 | 19.92859 | 2872 ft | 224 kts | 75° |
| 2026-05-05 13:46 | 39.41611 | 19.94721 | 2924 ft | 205 kts | 71° |
| 2026-05-05 13:46 | 39.42376 | 19.96177 | 2664 ft | 197 kts | 35° |
| 2026-05-05 13:46 | 39.43622 | 19.96681 | 2509 ft | 187 kts | 356° |
| 2026-05-05 13:46 | 39.44913 | 19.96435 | 2414 ft | 185 kts | 349° |
| 2026-05-05 13:47 | 39.46124 | 19.96131 | 2246 ft | 165 kts | 347° |
| 2026-05-05 13:47 | 39.47216 | 19.95812 | 2113 ft | 163 kts | 345° |
| 2026-05-05 13:47 | 39.48343 | 19.95448 | 2010 ft | 169 kts | 344° |
| 2026-05-05 13:47 | 39.49488 | 19.95057 | 1855 ft | 171 kts | 343° |
| 2026-05-05 13:48 | 39.50629 | 19.94652 | 1697 ft | 169 kts | 343° |
| 2026-05-05 13:48 | 39.51759 | 19.94243 | 1523 ft | 171 kts | 343° |
| 2026-05-05 13:48 | 39.52913 | 19.93820 | 1296 ft | 169 kts | 343° |
| 2026-05-05 13:48 | 39.54033 | 19.93405 | 1060 ft | 168 kts | 343° |
| 2026-05-05 13:49 | 39.55170 | 19.92987 | 867 ft | 172 kts | 342° |
| 2026-05-05 13:49 | 39.56293 | 19.92588 | 761 ft | 159 kts | 342° |
| 2026-05-05 13:49 | 39.57317 | 19.92163 | 541 ft | 155 kts | 339° |
| 2026-05-05 13:49 | 39.58353 | 19.91727 | 280 ft | 156 kts | 342° |
| 2026-05-05 13:50 | 39.59423 | 19.91414 | 23 ft | 155 kts | 346° |
| 2026-05-05 13:50 | 39.60314 | 19.91175 | 18 ft | 97 kts | 348° |
| 2026-05-05 13:50 | 39.60794 | 19.91057 | 21 ft | 47 kts | 349° |
| 2026-05-05 13:50 | 39.60990 | 19.91008 | 22 ft | 12 kts | 353° |
| 2026-05-05 13:51 | 39.61046 | 19.91063 | 22 ft | 6 kts | 67° |
| 2026-05-05 13:51 | 39.61051 | 19.91106 | 23 ft | 2 kts | 112° |
| 2026-05-05 13:51 | 39.61031 | 19.91122 | 23 ft | 5 kts | 157° |
| 2026-05-05 13:51 | 39.60981 | 19.91141 | 23 ft | 9 kts | 166° |
| 2026-05-05 13:52 | 39.60914 | 19.91158 | 23 ft | 10 kts | 169° |
| 2026-05-05 13:52 | 39.60838 | 19.91177 | 23 ft | 11 kts | 167° |
| 2026-05-05 13:52 | 39.60754 | 19.91198 | 22 ft | 12 kts | 170° |
| 2026-05-05 13:52 | 39.60695 | 19.91226 | 22 ft | 5 kts | 126° |
| 2026-05-05 13:53 | 39.60693 | 19.91277 | 22 ft | 6 kts | 80° |
| 2026-05-05 13:53 | 39.60701 | 19.91339 | 23 ft | 7 kts | 85° |
| 2026-05-05 13:53 | 39.60679 | 19.91374 | 23 ft | 5 kts | 161° |
| 2026-05-05 13:53 | 39.60654 | 19.91382 | 23 ft | 0 kts | 167° |